createdAt,value
2022-10-06T00:00:23.367Z,101389.25
2022-10-06T00:02:51.027Z,101394.03
2022-10-06T00:05:18.984Z,101395.19
2022-10-06T00:07:46.556Z,101394.19
2022-10-06T00:10:14.938Z,101396.47
2022-10-06T00:12:45.874Z,101396.91
2022-10-06T00:15:16.725Z,101410.44
2022-10-06T00:17:44.360Z,101425.66
2022-10-06T00:20:12.851Z,101419.75
2022-10-06T00:22:42.758Z,101426.91
2022-10-06T00:25:12.312Z,101427.78
2022-10-06T00:27:41.889Z,101435.81
2022-10-06T00:30:13.454Z,101435.91
2022-10-06T00:32:41.484Z,101439.59
2022-10-06T00:35:09.882Z,101441.25
2022-10-06T00:37:39.137Z,101451.28
2022-10-06T00:40:09.793Z,101455.66
2022-10-06T00:42:51.022Z,101465.66
2022-10-06T00:45:25.702Z,101472.00
2022-10-06T00:47:55.249Z,101481.16
2022-10-06T00:50:23.135Z,101477.63
2022-10-06T00:52:51.065Z,101480.47
2022-10-06T00:55:20.242Z,101486.09
2022-10-06T00:57:48.504Z,101488.91
2022-10-06T01:00:16.334Z,101488.34
2022-10-06T01:02:50.273Z,101488.78
2022-10-06T01:05:24.872Z,101488.22
2022-10-06T01:07:52.893Z,101490.47
2022-10-06T01:10:20.920Z,101495.97
2022-10-06T01:12:49.041Z,101498.06
2022-10-06T01:15:17.592Z,101510.19
2022-10-06T01:17:52.300Z,101509.78
2022-10-06T01:20:21.807Z,101506.53
2022-10-06T01:22:53.964Z,101512.03
2022-10-06T01:25:23.077Z,101519.47
2022-10-06T01:27:54.544Z,101519.88
2022-10-06T01:30:29.488Z,101518.59
2022-10-06T01:32:57.413Z,101518.75
2022-10-06T01:35:25.892Z,101526.06
2022-10-06T01:37:58.757Z,101531.13
2022-10-06T01:40:29.123Z,101539.41
2022-10-06T01:42:59.496Z,101540.53
2022-10-06T01:45:28.201Z,101548.81
2022-10-06T01:47:55.786Z,101544.75
2022-10-06T01:50:23.541Z,101545.69
2022-10-06T01:52:51.133Z,101558.50
2022-10-06T01:55:20.065Z,101563.28
2022-10-06T01:57:48.578Z,101561.84
2022-10-06T02:00:17.874Z,101568.16
2022-10-06T02:02:47.345Z,101567.63
2022-10-06T02:05:15.641Z,101573.22
2022-10-06T02:07:47.173Z,101578.84
2022-10-06T02:10:17.058Z,101579.94
2022-10-06T02:12:52.797Z,101578.38
2022-10-06T02:15:22.771Z,101584.28
2022-10-06T02:17:52.050Z,101588.16
2022-10-06T02:20:19.720Z,101594.63
2022-10-06T02:22:47.374Z,101605.69
2022-10-06T02:25:15.126Z,101612.25
2022-10-06T02:27:42.800Z,101607.91
2022-10-06T02:30:14.379Z,101616.91
2022-10-06T02:32:44.155Z,101612.06
2022-10-06T02:35:13.752Z,101629.19
2022-10-06T02:37:42.471Z,101626.66
2022-10-06T02:40:12.799Z,101638.47
2022-10-06T02:42:40.834Z,101632.53
2022-10-06T02:45:09.865Z,101646.16
2022-10-06T02:47:39.122Z,101652.56
2022-10-06T02:50:08.768Z,101652.44
2022-10-06T02:52:41.057Z,101659.28
2022-10-06T02:55:10.455Z,101656.88
2022-10-06T02:57:38.146Z,101660.63
2022-10-06T03:00:08.379Z,101668.78
2022-10-06T03:02:36.861Z,101668.06
2022-10-06T03:05:07.797Z,101672.66
2022-10-06T03:07:35.447Z,101672.94
2022-10-06T03:10:03.470Z,101671.69
2022-10-06T03:12:31.445Z,101667.00
2022-10-06T03:14:59.313Z,101675.13
2022-10-06T03:17:27.056Z,101695.78
2022-10-06T03:19:57.932Z,101699.41
2022-10-06T03:22:27.484Z,101699.66
2022-10-06T03:24:57.894Z,101706.97
2022-10-06T03:27:25.992Z,101711.56
2022-10-06T03:29:57.245Z,101717.88
2022-10-06T03:32:27.080Z,101717.16
2022-10-06T03:34:54.746Z,101723.72
2022-10-06T03:37:22.774Z,101723.84
2022-10-06T03:39:52.211Z,101731.22
2022-10-06T03:42:20.368Z,101728.81
2022-10-06T03:44:48.462Z,101743.13
2022-10-06T03:47:17.649Z,101746.88
2022-10-06T03:49:46.635Z,101746.28
2022-10-06T03:52:16.093Z,101752.72
2022-10-06T03:54:43.661Z,101763.53
2022-10-06T03:57:13.258Z,101763.63
2022-10-06T03:59:40.951Z,101772.72
2022-10-06T04:02:11.156Z,101766.69
2022-10-06T04:04:38.818Z,101773.22
2022-10-06T04:07:09.306Z,101786.81
2022-10-06T04:09:37.491Z,101784.38
2022-10-06T04:12:05.505Z,101784.50
2022-10-06T04:14:37.209Z,101788.34
2022-10-06T04:17:06.393Z,101790.41
2022-10-06T04:19:41.471Z,101796.00
2022-10-06T04:22:09.123Z,101796.22
2022-10-06T04:24:37.110Z,101808.81
2022-10-06T04:27:22.394Z,101824.09
2022-10-06T04:30:05.895Z,101828.81
2022-10-06T04:32:34.064Z,101831.69
2022-10-06T04:35:01.645Z,101834.59
2022-10-06T04:37:29.864Z,101840.03
2022-10-06T04:39:58.482Z,101832.88
2022-10-06T04:42:32.528Z,101840.38
2022-10-06T04:45:03.060Z,101844.16
2022-10-06T04:47:32.241Z,101857.56
2022-10-06T04:49:59.852Z,101846.31
2022-10-06T04:52:27.926Z,101858.16
2022-10-06T04:54:55.600Z,101866.28
2022-10-06T04:57:23.216Z,101862.84
2022-10-06T05:00:12.566Z,101870.97
2022-10-06T05:02:44.857Z,101878.44
2022-10-06T05:05:12.474Z,101884.88
2022-10-06T05:07:40.286Z,101887.66
2022-10-06T05:10:09.276Z,101890.53
2022-10-06T05:12:37.319Z,101895.13
2022-10-06T05:15:05.786Z,101901.53
2022-10-06T05:17:33.343Z,101905.28
2022-10-06T05:20:02.602Z,101917.03
2022-10-06T05:22:30.374Z,101920.75
2022-10-06T05:24:59.339Z,101921.59
2022-10-06T05:27:27.091Z,101924.38
2022-10-06T05:29:54.690Z,101923.66
2022-10-06T05:32:22.704Z,101922.81
2022-10-06T05:34:50.340Z,101936.34
2022-10-06T05:37:20.148Z,101934.63
2022-10-06T05:39:47.755Z,101936.44
2022-10-06T05:42:15.430Z,101942.75
2022-10-06T05:44:43.497Z,101943.69
2022-10-06T05:47:13.020Z,101948.16
2022-10-06T05:49:41.075Z,101954.34
2022-10-06T05:52:08.721Z,101964.13
2022-10-06T05:54:39.166Z,101961.59
2022-10-06T05:57:08.482Z,101967.88
2022-10-06T05:59:36.560Z,101975.75
2022-10-06T06:02:05.494Z,101986.41
2022-10-06T06:04:38.152Z,101985.44
2022-10-06T06:07:06.475Z,101979.28
2022-10-06T06:09:34.435Z,101994.28
2022-10-06T06:12:05.856Z,101993.56
2022-10-06T06:15:20.134Z,102002.28
2022-10-06T06:17:58.718Z,102000.47
2022-10-06T06:20:26.319Z,102005.91
2022-10-06T06:22:54.337Z,102011.88
2022-10-06T06:25:26.064Z,102015.53
2022-10-06T06:27:57.607Z,102018.19
2022-10-06T06:30:25.967Z,102032.22
2022-10-06T06:32:58.081Z,102028.72
2022-10-06T06:35:25.627Z,102036.47
2022-10-06T06:37:53.345Z,102042.88
2022-10-06T06:40:21.443Z,102041.06
2022-10-06T06:42:53.673Z,102045.44
2022-10-06T06:46:03.146Z,102059.59
2022-10-06T06:49:04.106Z,102063.88
2022-10-06T06:51:36.462Z,102063.88
2022-10-06T06:54:04.591Z,102068.88
2022-10-06T06:56:35.695Z,102082.22
2022-10-06T06:59:09.055Z,102085.38
2022-10-06T07:01:41.347Z,102095.19
2022-10-06T07:04:09.067Z,102084.31
2022-10-06T07:06:39.977Z,102094.66
2022-10-06T07:09:10.012Z,102096.97
2022-10-06T07:11:40.763Z,102105.50
2022-10-06T07:14:13.048Z,102104.97
2022-10-06T07:17:03.723Z,102115.63
2022-10-06T07:19:49.723Z,102114.97
2022-10-06T07:22:37.760Z,102113.78
2022-10-06T07:25:17.379Z,102115.78
2022-10-06T07:27:51.664Z,102118.75
2022-10-06T07:30:25.642Z,102126.31
2022-10-06T07:33:15.698Z,102141.75
2022-10-06T07:35:45.098Z,102141.28
2022-10-06T07:38:14.196Z,102135.38
2022-10-06T07:40:50.605Z,102144.28
2022-10-06T07:43:33.124Z,102150.97
2022-10-06T07:46:01.655Z,102160.31
2022-10-06T07:48:38.045Z,102168.97
2022-10-06T07:51:13.155Z,102169.22
2022-10-06T07:53:42.428Z,102173.19
2022-10-06T07:56:20.235Z,102169.81
2022-10-06T07:58:51.134Z,102182.84
2022-10-06T08:01:20.479Z,102178.88
2022-10-06T08:03:50.559Z,102173.78
2022-10-06T08:06:20.340Z,102188.16
2022-10-06T08:08:52.672Z,102188.81
2022-10-06T08:11:22.727Z,102187.50
2022-10-06T08:13:51.648Z,102198.50
2022-10-06T08:16:21.714Z,102200.06
2022-10-06T08:18:53.145Z,102190.59
2022-10-06T08:21:22.468Z,102199.47
2022-10-06T08:23:51.707Z,102200.44
2022-10-06T08:26:21.292Z,102210.88
2022-10-06T08:28:51.370Z,102207.72
2022-10-06T08:31:21.192Z,102217.94
2022-10-06T08:33:54.865Z,102217.34
2022-10-06T08:36:25.906Z,102221.44
2022-10-06T08:38:56.286Z,102217.56
2022-10-06T08:41:27.373Z,102224.97
2022-10-06T08:44:00.919Z,102220.69
2022-10-06T08:46:36.534Z,102230.81
2022-10-06T08:49:06.260Z,102234.69
2022-10-06T08:51:50.504Z,102239.03
2022-10-06T08:54:29.450Z,102239.47
2022-10-06T08:57:03.584Z,102240.56
2022-10-06T08:59:34.892Z,102252.50
2022-10-06T09:02:07.522Z,102254.34
2022-10-06T09:04:36.590Z,102263.72
2022-10-06T09:07:11.338Z,102251.88
2022-10-06T09:09:58.910Z,102260.03
2022-10-06T09:12:33.437Z,102269.53
2022-10-06T09:15:16.324Z,102273.06
2022-10-06T09:17:50.147Z,102265.75
2022-10-06T09:20:26.877Z,102268.44
2022-10-06T09:22:57.585Z,102270.25
2022-10-06T09:25:29.034Z,102271.13
2022-10-06T09:27:58.842Z,102277.91
2022-10-06T09:30:27.807Z,102274.84
2022-10-06T09:32:59.947Z,102271.03
2022-10-06T09:35:30.510Z,102279.22
2022-10-06T09:38:07.864Z,102284.22
2022-10-06T09:40:42.008Z,102285.06
2022-10-06T09:43:20.278Z,102282.66
2022-10-06T09:45:47.974Z,102278.38
2022-10-06T09:48:24.744Z,102284.06
2022-10-06T09:51:13.132Z,102286.28
2022-10-06T09:53:41.188Z,102280.91
2022-10-06T09:56:18.634Z,102287.88
2022-10-06T09:58:57.343Z,102280.06
2022-10-06T10:01:27.306Z,102286.19
2022-10-06T10:04:20.880Z,102287.41
2022-10-06T10:06:50.102Z,102288.25
2022-10-06T10:09:27.221Z,102292.06
2022-10-06T10:12:20.899Z,102301.41
2022-10-06T10:14:48.492Z,102304.09
2022-10-06T10:17:19.814Z,102305.81
2022-10-06T10:19:54.131Z,102309.53
2022-10-06T10:22:26.102Z,102309.81
2022-10-06T10:25:02.584Z,102312.72
2022-10-06T10:27:39.335Z,102320.31
2022-10-06T10:30:10.569Z,102319.13
2022-10-06T10:32:49.851Z,102313.16
2022-10-06T10:35:24.936Z,102317.78
2022-10-06T10:38:00.428Z,102315.81
2022-10-06T10:40:34.892Z,102304.16
2022-10-06T10:43:11.455Z,102310.03
2022-10-06T10:45:44.999Z,102310.34
2022-10-06T10:48:19.262Z,102322.91
2022-10-06T10:50:53.281Z,102318.28
2022-10-06T10:53:31.012Z,102328.63
2022-10-06T10:55:59.029Z,102318.22
2022-10-06T10:58:32.571Z,102325.88
2022-10-06T11:01:07.776Z,102323.91
2022-10-06T11:03:35.803Z,102328.06
2022-10-06T11:06:22.511Z,102323.88
2022-10-06T11:08:59.917Z,102324.56
2022-10-06T11:11:43.482Z,102325.69
2022-10-06T11:14:23.268Z,102331.53
2022-10-06T11:16:58.404Z,102326.25
2022-10-06T11:19:35.359Z,102331.94
2022-10-06T11:22:06.717Z,102319.13
2022-10-06T11:24:46.502Z,102327.03
2022-10-06T11:27:31.582Z,102336.69
2022-10-06T11:30:06.552Z,102334.56
2022-10-06T11:32:48.142Z,102324.94
2022-10-06T11:35:20.433Z,102327.03
2022-10-06T11:37:53.647Z,102328.34
2022-10-06T11:40:37.678Z,102324.94
2022-10-06T11:43:15.208Z,102339.81
2022-10-06T11:45:49.450Z,102337.00
2022-10-06T11:48:26.294Z,102319.63
2022-10-06T11:50:56.125Z,102324.75
2022-10-06T11:53:40.939Z,102319.97
2022-10-06T11:56:37.587Z,102327.03
2022-10-06T11:59:28.454Z,102329.13
2022-10-06T12:02:00.688Z,102323.19
2022-10-06T12:04:28.939Z,102323.03
2022-10-06T12:07:01.707Z,102324.88
2022-10-06T12:09:40.876Z,102321.81
2022-10-06T12:12:41.952Z,102312.16
2022-10-06T12:18:17.500Z,102318.25
2022-10-06T12:20:59.851Z,102318.25
2022-10-06T12:23:45.264Z,102315.16
2022-10-06T12:26:24.924Z,102315.91
2022-10-06T12:28:59.225Z,102317.84
2022-10-06T12:31:52.595Z,102311.38
2022-10-06T12:34:43.016Z,102307.69
2022-10-06T12:37:38.083Z,102312.78
2022-10-06T12:40:40.199Z,102314.06
2022-10-06T12:43:28.543Z,102315.75
2022-10-06T12:45:59.163Z,102312.75
2022-10-06T12:48:42.959Z,102303.72
2022-10-06T12:51:23.479Z,102309.78
2022-10-06T12:54:00.026Z,102314.16
2022-10-06T12:56:32.080Z,102307.56
2022-10-06T12:58:59.590Z,102307.03
2022-10-06T13:01:28.410Z,102297.88
2022-10-06T13:03:57.350Z,102303.34
2022-10-06T13:06:26.061Z,102301.50
2022-10-06T13:09:06.750Z,102314.94
2022-10-06T13:11:34.702Z,102295.59
2022-10-06T13:14:10.940Z,102306.47
2022-10-06T13:16:41.542Z,102303.53
2022-10-06T13:19:18.984Z,102300.56
2022-10-06T13:21:47.975Z,102300.44
2022-10-06T13:24:20.699Z,102292.97
2022-10-06T13:26:49.248Z,102293.97
2022-10-06T13:29:22.306Z,102292.97
2022-10-06T13:31:53.430Z,102298.78
2022-10-06T13:34:29.838Z,102292.00
2022-10-06T13:36:59.926Z,102294.00
2022-10-06T13:39:31.577Z,102292.91
2022-10-06T13:42:03.296Z,102290.50
2022-10-06T13:44:37.958Z,102287.69
2022-10-06T13:47:08.264Z,102286.84
2022-10-06T13:49:45.476Z,102290.97
2022-10-06T13:52:18.013Z,102277.53
2022-10-06T13:54:49.440Z,102284.31
2022-10-06T13:57:38.808Z,102293.53
2022-10-06T14:00:17.170Z,102300.88
2022-10-06T14:02:47.649Z,102298.91
2022-10-06T14:05:38.407Z,102304.88
2022-10-06T14:08:19.883Z,102292.69
2022-10-06T14:10:51.238Z,102296.38
2022-10-06T14:13:21.792Z,102300.31
2022-10-06T14:15:50.997Z,102297.50
2022-10-06T14:18:23.097Z,102295.94
2022-10-06T14:20:53.275Z,102294.91
2022-10-06T14:23:48.338Z,102293.19
2022-10-06T14:26:17.542Z,102303.09
2022-10-06T14:28:51.529Z,102293.16
2022-10-06T14:31:20.073Z,102298.53
2022-10-06T14:33:49.178Z,102298.69
2022-10-06T14:36:20.648Z,102296.25
2022-10-06T14:38:50.075Z,102301.91
2022-10-06T14:41:19.641Z,102298.63
2022-10-06T14:43:48.213Z,102296.94
2022-10-06T14:46:15.906Z,102296.09
2022-10-06T14:48:43.572Z,102294.66
2022-10-06T14:51:11.655Z,102293.97
2022-10-06T14:53:40.704Z,102290.81
2022-10-06T14:56:10.339Z,102294.50
2022-10-06T14:58:39.539Z,102292.06
2022-10-06T15:01:08.421Z,102297.59
2022-10-06T15:03:36.810Z,102298.97
2022-10-06T15:06:23.411Z,102305.47
2022-10-06T15:08:52.864Z,102304.03
2022-10-06T15:11:21.465Z,102290.00
2022-10-06T15:13:49.306Z,102299.19
2022-10-06T15:16:18.007Z,102300.31
2022-10-06T15:18:45.729Z,102296.91
2022-10-06T15:21:13.279Z,102292.66
2022-10-06T15:23:41.104Z,102301.72
2022-10-06T15:26:29.237Z,102297.44
2022-10-06T15:29:03.321Z,102292.22
2022-10-06T15:31:34.938Z,102298.69
2022-10-06T15:34:04.414Z,102290.91
2022-10-06T15:36:34.110Z,102290.19
2022-10-06T15:39:05.806Z,102289.59
2022-10-06T15:41:35.110Z,102292.53
2022-10-06T15:44:03.088Z,102297.19
2022-10-06T15:46:31.944Z,102287.69
2022-10-06T15:49:02.148Z,102289.81
2022-10-06T15:51:32.152Z,102291.78
2022-10-06T15:53:59.700Z,102285.53
2022-10-06T15:56:28.985Z,102288.84
2022-10-06T15:58:58.074Z,102293.50
2022-10-06T16:01:28.201Z,102296.44
2022-10-06T16:03:57.991Z,102288.78
2022-10-06T16:06:41.128Z,102296.13
2022-10-06T16:09:10.045Z,102292.13
2022-10-06T16:11:37.758Z,102287.03
2022-10-06T16:14:07.090Z,102286.56
2022-10-06T16:16:37.786Z,102286.94
2022-10-06T16:19:08.147Z,102289.03
2022-10-06T16:21:35.920Z,102291.25
2022-10-06T16:24:03.516Z,102294.31
2022-10-06T16:26:31.350Z,102291.16
2022-10-06T16:28:59.285Z,102283.50
2022-10-06T16:31:28.481Z,102287.53
2022-10-06T16:33:56.145Z,102286.97
2022-10-06T16:36:24.034Z,102287.34
2022-10-06T16:38:53.128Z,102287.84
2022-10-06T16:41:22.938Z,102290.03
2022-10-06T16:43:52.588Z,102296.88
2022-10-06T16:46:22.585Z,102294.56
2022-10-06T16:48:53.397Z,102295.06
2022-10-06T16:51:22.811Z,102304.44
2022-10-06T16:53:52.259Z,102293.50
2022-10-06T16:56:22.052Z,102303.22
2022-10-06T16:58:53.316Z,102298.72
2022-10-06T17:01:23.252Z,102300.19
2022-10-06T17:03:59.989Z,102304.31
2022-10-06T17:06:27.789Z,102308.69
2022-10-06T17:08:56.530Z,102304.16
2022-10-06T17:11:25.851Z,102301.13
2022-10-06T17:13:55.317Z,102302.69
2022-10-06T17:16:25.180Z,102313.97
2022-10-06T17:18:55.212Z,102302.03
2022-10-06T17:21:46.354Z,102308.00
2022-10-06T17:24:12.749Z,102310.38
2022-10-06T17:26:41.862Z,102307.56
2022-10-06T17:29:13.712Z,102314.34
2022-10-06T17:31:43.204Z,102313.16
2022-10-06T17:34:12.719Z,102314.59
2022-10-06T17:36:44.352Z,102317.09
2022-10-06T17:39:13.692Z,102312.19
2022-10-06T17:41:43.220Z,102313.88
2022-10-06T17:44:14.219Z,102313.69
2022-10-06T17:46:43.915Z,102319.34
2022-10-06T17:49:13.489Z,102317.34
2022-10-06T17:51:45.069Z,102317.88
2022-10-06T17:54:16.712Z,102322.94
2022-10-06T17:56:46.011Z,102322.63
2022-10-06T17:59:15.739Z,102316.97
2022-10-06T18:01:44.787Z,102326.25
2022-10-06T18:04:15.620Z,102325.97
2022-10-06T18:06:46.036Z,102321.19
2022-10-06T18:09:14.498Z,102319.88
2022-10-06T18:11:43.740Z,102315.94
2022-10-06T18:14:12.820Z,102309.44
2022-10-06T18:16:42.614Z,102316.97
2022-10-06T18:19:13.204Z,102316.53
2022-10-06T18:21:42.364Z,102313.41
2022-10-06T18:24:16.404Z,102322.78
2022-10-06T18:26:45.269Z,102316.19
2022-10-06T18:29:12.897Z,102319.25
2022-10-06T18:31:40.592Z,102321.38
2022-10-06T18:35:57.469Z,102320.94
2022-10-06T18:36:58.743Z,102319.75
2022-10-06T18:39:31.139Z,102320.25
2022-10-06T18:41:59.073Z,102320.66
2022-10-06T18:44:40.594Z,102316.69
2022-10-06T18:47:25.601Z,102317.94
2022-10-06T18:49:53.736Z,102321.97
2022-10-06T18:52:22.537Z,102323.22
2022-10-06T18:54:51.547Z,102315.63
2022-10-06T18:57:20.752Z,102317.81
2022-10-06T18:59:51.542Z,102326.09
2022-10-06T19:02:19.204Z,102326.38
2022-10-06T19:04:48.209Z,102325.81
2022-10-06T19:07:15.859Z,102327.06
2022-10-06T19:09:46.500Z,102336.22
2022-10-06T19:12:16.184Z,102323.28
2022-10-06T19:14:47.589Z,102327.94
2022-10-06T19:17:15.893Z,102331.72
2022-10-06T19:19:45.269Z,102323.22
2022-10-06T19:22:14.561Z,102332.44
2022-10-06T19:24:43.611Z,102338.00
2022-10-06T19:27:12.927Z,102340.94
2022-10-06T19:29:45.842Z,102333.22
2022-10-06T19:32:17.065Z,102341.47
2022-10-06T19:34:45.460Z,102327.53
2022-10-06T19:37:13.074Z,102332.94
2022-10-06T19:39:43.612Z,102331.41
2022-10-06T19:42:29.677Z,102337.84
2022-10-06T19:44:58.703Z,102336.44
2022-10-06T19:47:26.947Z,102333.19
2022-10-06T19:49:58.878Z,102327.31
2022-10-06T19:52:28.557Z,102327.59
2022-10-06T19:54:56.168Z,102327.84
2022-10-06T19:57:23.930Z,102321.84
2022-10-06T19:59:51.637Z,102330.13
2022-10-06T20:02:20.546Z,102328.59
2022-10-06T20:04:48.267Z,102336.81
2022-10-06T20:07:15.868Z,102337.97
2022-10-06T20:09:43.958Z,102339.94
2022-10-06T20:12:12.111Z,102338.38
2022-10-06T20:14:39.725Z,102335.25
2022-10-06T20:17:07.376Z,102338.09
2022-10-06T20:19:36.389Z,102341.84
2022-10-06T20:22:05.931Z,102341.16
2022-10-06T20:24:33.861Z,102336.16
2022-10-06T20:27:01.541Z,102341.72
2022-10-06T20:29:29.477Z,102336.66
2022-10-06T20:31:58.996Z,102338.63
2022-10-06T20:34:31.485Z,102340.59
2022-10-06T20:37:02.214Z,102335.47
2022-10-06T20:39:53.779Z,102335.72
2022-10-06T20:42:22.005Z,102326.31
2022-10-06T20:44:49.878Z,102336.25
2022-10-06T20:47:17.540Z,102337.28
2022-10-06T20:49:45.411Z,102333.00
2022-10-06T20:52:15.049Z,102335.81
2022-10-06T20:54:43.846Z,102336.94
2022-10-06T20:57:11.585Z,102341.47
2022-10-06T20:59:39.287Z,102329.31
2022-10-06T21:02:08.020Z,102331.25
2022-10-06T21:04:35.901Z,102325.28
2022-10-06T21:07:06.041Z,102320.91
2022-10-06T21:09:35.286Z,102313.13
2022-10-06T21:12:05.293Z,102315.09
2022-10-06T21:14:34.161Z,102318.88
2022-10-06T21:17:02.014Z,102323.31
2022-10-06T21:19:31.542Z,102317.41
2022-10-06T21:21:59.887Z,102315.84
2022-10-06T21:24:27.898Z,102316.91
2022-10-06T21:26:57.006Z,102317.94
2022-10-06T21:29:24.937Z,102323.50
2022-10-06T21:31:52.717Z,102314.78
2022-10-06T21:34:20.471Z,102315.88
2022-10-06T21:36:48.339Z,102310.75
2022-10-06T21:39:16.057Z,102308.34
2022-10-06T21:41:43.842Z,102311.97
2022-10-06T21:44:14.721Z,102300.63
2022-10-06T21:46:46.425Z,102306.94
2022-10-06T21:49:15.561Z,102313.16
2022-10-06T21:51:46.272Z,102309.06
2022-10-06T21:54:14.349Z,102302.22
2022-10-06T21:56:42.504Z,102303.16
2022-10-06T21:59:10.483Z,102300.75
2022-10-06T22:01:41.197Z,102295.59
2022-10-06T22:04:09.649Z,102291.41
2022-10-06T22:06:38.171Z,102296.00
2022-10-06T22:09:08.097Z,102290.88
2022-10-06T22:11:37.645Z,102284.00
2022-10-06T22:14:07.390Z,102290.31
2022-10-06T22:16:36.919Z,102288.78
2022-10-06T22:19:07.981Z,102283.63
2022-10-06T22:21:37.765Z,102281.91
2022-10-06T22:24:07.691Z,102276.78
2022-10-06T22:26:37.858Z,102284.75
2022-10-06T22:29:07.500Z,102276.00
2022-10-06T22:31:39.189Z,102271.63
2022-10-06T22:34:08.924Z,102268.91
2022-10-06T22:36:36.671Z,102264.72
2022-10-06T22:39:05.631Z,102254.28
2022-10-06T22:41:33.660Z,102257.00
2022-10-06T22:44:01.699Z,102248.34
2022-10-06T22:46:31.413Z,102258.09
2022-10-06T22:48:59.495Z,102247.50
2022-10-06T22:51:29.083Z,102248.25
2022-10-06T22:53:58.806Z,102241.34
2022-10-06T22:56:26.988Z,102247.41
2022-10-06T22:58:54.968Z,102243.91
2022-10-06T23:01:24.816Z,102242.19
2022-10-06T23:03:54.763Z,102236.91
2022-10-06T23:06:22.517Z,102231.63
2022-10-06T23:08:51.589Z,102230.75
2022-10-06T23:11:21.693Z,102227.25
2022-10-06T23:13:50.661Z,102227.09
2022-10-06T23:16:19.951Z,102224.59
2022-10-06T23:18:48.633Z,102220.25
2022-10-06T23:21:21.811Z,102214.16
2022-10-06T23:23:53.263Z,102210.66
2022-10-06T23:26:22.243Z,102211.50
2022-10-06T23:28:53.102Z,102209.91
2022-10-06T23:31:21.198Z,102206.47
2022-10-06T23:33:49.456Z,102202.19
2022-10-06T23:36:17.917Z,102189.97
2022-10-06T23:38:46.591Z,102190.91
2022-10-06T23:41:15.976Z,102196.28
2022-10-06T23:43:43.896Z,102193.78
2022-10-06T23:46:12.043Z,102195.72
2022-10-06T23:48:40.280Z,102196.75
2022-10-06T23:51:09.831Z,102201.28
2022-10-06T23:53:38.133Z,102194.34
2022-10-06T23:56:06.696Z,102191.78
2022-10-06T23:58:36.084Z,102190.97
